Terminal Aerodrome Forecast
Issued by NWS

Home | Current Version | Previous Version | Text Only | Print | Product List | Glossary On
Versions: 1 2 3 4 5 6 7 8 9 10 11 12 13 14 15 16 17 18
000
FTUS46 KMTR 211400 AAA
TAFSTS
TAF AMD
KSTS 211401Z 2114/2212 VRB03KT 3SM BR OVC008
     FM212000 18011KT P6SM FEW020
     FM220300 17006KT P6SM SKC
     FM220400 18005KT P6SM OVC012
     FM220800 00000KT P6SM OVC008=

USA.gov is the U.S. government's official web portal to all federal, state and local government web resources and services.